sensor_id;sensor_type;location;lat;lon;timestamp;P1;durP1;ratioP1;P2;durP2;ratioP2
53646;SDS011;39550;52.230;5.194;2023-03-14T00:01:34;13.63;;;5.53;;
53646;SDS011;39550;52.230;5.194;2023-03-14T00:03:59;11.35;;;4.78;;
53646;SDS011;39550;52.230;5.194;2023-03-14T00:06:24;11.02;;;4.63;;
53646;SDS011;39550;52.230;5.194;2023-03-14T00:08:51;10.88;;;5.05;;
53646;SDS011;39550;52.230;5.194;2023-03-14T00:11:20;14.05;;;4.70;;
53646;SDS011;39550;52.230;5.194;2023-03-14T00:13:47;15.88;;;5.20;;
53646;SDS011;39550;52.230;5.194;2023-03-14T00:16:13;12.20;;;4.82;;
53646;SDS011;39550;52.230;5.194;2023-03-14T00:18:39;15.70;;;5.88;;
53646;SDS011;39550;52.230;5.194;2023-03-14T00:21:05;12.43;;;4.80;;
53646;SDS011;39550;52.230;5.194;2023-03-14T00:23:32;11.18;;;5.10;;
53646;SDS011;39550;52.230;5.194;2023-03-14T00:26:00;9.27;;;4.40;;
53646;SDS011;39550;52.230;5.194;2023-03-14T00:28:27;8.48;;;4.40;;
53646;SDS011;39550;52.230;5.194;2023-03-14T00:30:53;13.13;;;4.95;;
53646;SDS011;39550;52.230;5.194;2023-03-14T00:33:18;10.50;;;4.00;;
53646;SDS011;39550;52.230;5.194;2023-03-14T00:35:51;11.85;;;4.28;;
53646;SDS011;39550;52.230;5.194;2023-03-14T00:38:24;10.32;;;4.80;;
53646;SDS011;39550;52.230;5.194;2023-03-14T00:40:51;10.95;;;4.75;;
53646;SDS011;39550;52.230;5.194;2023-03-14T00:43:17;14.60;;;5.07;;
53646;SDS011;39550;52.230;5.194;2023-03-14T00:45:43;14.68;;;5.28;;
53646;SDS011;39550;52.230;5.194;2023-03-14T00:48:09;11.13;;;4.85;;
53646;SDS011;39550;52.230;5.194;2023-03-14T00:50:34;10.30;;;4.30;;
53646;SDS011;39550;52.230;5.194;2023-03-14T00:52:59;13.25;;;5.60;;
53646;SDS011;39550;52.230;5.194;2023-03-14T00:55:25;10.52;;;4.40;;
53646;SDS011;39550;52.230;5.194;2023-03-14T00:57:50;9.35;;;3.85;;
53646;SDS011;39550;52.230;5.194;2023-03-14T01:00:16;12.25;;;4.60;;
53646;SDS011;39550;52.230;5.194;2023-03-14T01:02:41;12.43;;;4.53;;
53646;SDS011;39550;52.230;5.194;2023-03-14T01:05:08;11.73;;;5.07;;
53646;SDS011;39550;52.230;5.194;2023-03-14T01:07:35;12.38;;;4.18;;
53646;SDS011;39550;52.230;5.194;2023-03-14T01:10:01;12.57;;;4.05;;
53646;SDS011;39550;52.230;5.194;2023-03-14T01:12:27;9.40;;;4.60;;
53646;SDS011;39550;52.230;5.194;2023-03-14T01:14:52;10.18;;;4.65;;
53646;SDS011;39550;52.230;5.194;2023-03-14T01:17:18;13.23;;;4.32;;
53646;SDS011;39550;52.230;5.194;2023-03-14T01:19:43;10.52;;;4.78;;
53646;SDS011;39550;52.230;5.194;2023-03-14T01:22:08;8.60;;;4.63;;
53646;SDS011;39550;52.230;5.194;2023-03-14T01:24:34;8.18;;;4.15;;
53646;SDS011;39550;52.230;5.194;2023-03-14T01:26:59;9.70;;;4.00;;
53646;SDS011;39550;52.230;5.194;2023-03-14T01:29:24;8.80;;;4.18;;
53646;SDS011;39550;52.230;5.194;2023-03-14T01:31:50;11.52;;;4.68;;
53646;SDS011;39550;52.230;5.194;2023-03-14T01:34:15;12.32;;;4.47;;
53646;SDS011;39550;52.230;5.194;2023-03-14T01:36:40;10.73;;;3.97;;
53646;SDS011;39550;52.230;5.194;2023-03-14T01:39:06;9.45;;;4.22;;
53646;SDS011;39550;52.230;5.194;2023-03-14T01:41:31;8.50;;;3.90;;
53646;SDS011;39550;52.230;5.194;2023-03-14T01:43:57;8.82;;;3.85;;
53646;SDS011;39550;52.230;5.194;2023-03-14T01:49:15;15.80;;;4.60;;
53646;SDS011;39550;52.230;5.194;2023-03-14T01:54:32;10.70;;;4.47;;
53646;SDS011;39550;52.230;5.194;2023-03-14T01:59:35;8.77;;;3.97;;
53646;SDS011;39550;52.230;5.194;2023-03-14T02:02:04;10.88;;;3.95;;
53646;SDS011;39550;52.230;5.194;2023-03-14T02:04:32;7.85;;;3.90;;
53646;SDS011;39550;52.230;5.194;2023-03-14T02:07:03;12.27;;;4.10;;
53646;SDS011;39550;52.230;5.194;2023-03-14T02:09:33;7.50;;;4.03;;
53646;SDS011;39550;52.230;5.194;2023-03-14T02:11:59;9.10;;;4.22;;
53646;SDS011;39550;52.230;5.194;2023-03-14T02:14:27;7.47;;;3.72;;
53646;SDS011;39550;52.230;5.194;2023-03-14T02:16:56;13.07;;;4.53;;
53646;SDS011;39550;52.230;5.194;2023-03-14T02:19:26;9.75;;;4.10;;
53646;SDS011;39550;52.230;5.194;2023-03-14T02:22:13;7.55;;;4.00;;
53646;SDS011;39550;52.230;5.194;2023-03-14T02:24:46;9.82;;;3.63;;
53646;SDS011;39550;52.230;5.194;2023-03-14T02:27:22;7.28;;;3.92;;
53646;SDS011;39550;52.230;5.194;2023-03-14T02:29:51;7.40;;;3.75;;
53646;SDS011;39550;52.230;5.194;2023-03-14T02:32:19;9.48;;;4.03;;
53646;SDS011;39550;52.230;5.194;2023-03-14T02:34:48;10.63;;;3.83;;
53646;SDS011;39550;52.230;5.194;2023-03-14T02:37:17;7.97;;;3.80;;
53646;SDS011;39550;52.230;5.194;2023-03-14T02:39:45;10.15;;;3.92;;
53646;SDS011;39550;52.230;5.194;2023-03-14T02:42:13;12.65;;;3.58;;
53646;SDS011;39550;52.230;5.194;2023-03-14T02:44:48;7.65;;;3.70;;
53646;SDS011;39550;52.230;5.194;2023-03-14T02:47:18;9.73;;;3.83;;
53646;SDS011;39550;52.230;5.194;2023-03-14T02:49:45;8.38;;;3.50;;
53646;SDS011;39550;52.230;5.194;2023-03-14T02:52:11;10.02;;;4.00;;
53646;SDS011;39550;52.230;5.194;2023-03-14T02:54:36;7.45;;;3.22;;
53646;SDS011;39550;52.230;5.194;2023-03-14T02:57:02;9.77;;;3.95;;
53646;SDS011;39550;52.230;5.194;2023-03-14T02:59:28;6.38;;;3.38;;
53646;SDS011;39550;52.230;5.194;2023-03-14T03:01:53;8.93;;;3.65;;
53646;SDS011;39550;52.230;5.194;2023-03-14T03:04:21;8.57;;;3.47;;
53646;SDS011;39550;52.230;5.194;2023-03-14T03:06:47;10.88;;;3.72;;
53646;SDS011;39550;52.230;5.194;2023-03-14T03:09:12;10.88;;;4.18;;
53646;SDS011;39550;52.230;5.194;2023-03-14T03:11:37;7.50;;;3.92;;
53646;SDS011;39550;52.230;5.194;2023-03-14T03:14:03;8.07;;;3.30;;
53646;SDS011;39550;52.230;5.194;2023-03-14T03:16:28;8.68;;;3.35;;
53646;SDS011;39550;52.230;5.194;2023-03-14T03:18:53;11.27;;;3.72;;
53646;SDS011;39550;52.230;5.194;2023-03-14T03:21:18;6.72;;;3.20;;
53646;SDS011;39550;52.230;5.194;2023-03-14T03:23:48;6.70;;;3.35;;
53646;SDS011;39550;52.230;5.194;2023-03-14T03:26:13;6.70;;;3.35;;
53646;SDS011;39550;52.230;5.194;2023-03-14T03:28:39;9.38;;;3.60;;
53646;SDS011;39550;52.230;5.194;2023-03-14T03:31:08;8.85;;;3.72;;
53646;SDS011;39550;52.230;5.194;2023-03-14T03:33:35;9.68;;;3.53;;
53646;SDS011;39550;52.230;5.194;2023-03-14T03:36:01;6.03;;;3.40;;
53646;SDS011;39550;52.230;5.194;2023-03-14T03:38:26;7.90;;;3.10;;
53646;SDS011;39550;52.230;5.194;2023-03-14T03:40:52;10.93;;;3.95;;
53646;SDS011;39550;52.230;5.194;2023-03-14T03:43:17;7.82;;;3.20;;
53646;SDS011;39550;52.230;5.194;2023-03-14T03:45:43;8.18;;;4.15;;
53646;SDS011;39550;52.230;5.194;2023-03-14T03:48:10;8.35;;;4.00;;
53646;SDS011;39550;52.230;5.194;2023-03-14T03:50:35;8.25;;;4.00;;
53646;SDS011;39550;52.230;5.194;2023-03-14T03:53:00;6.82;;;3.40;;
53646;SDS011;39550;52.230;5.194;2023-03-14T03:55:26;6.60;;;3.40;;
53646;SDS011;39550;52.230;5.194;2023-03-14T03:57:53;10.98;;;3.40;;
53646;SDS011;39550;52.230;5.194;2023-03-14T04:00:18;6.78;;;3.58;;
53646;SDS011;39550;52.230;5.194;2023-03-14T04:02:43;7.75;;;3.20;;
53646;SDS011;39550;52.230;5.194;2023-03-14T04:05:09;10.07;;;2.88;;
53646;SDS011;39550;52.230;5.194;2023-03-14T04:07:34;9.07;;;3.22;;
53646;SDS011;39550;52.230;5.194;2023-03-14T04:10:00;7.57;;;3.45;;
53646;SDS011;39550;52.230;5.194;2023-03-14T04:12:25;8.27;;;3.60;;
53646;SDS011;39550;52.230;5.194;2023-03-14T04:14:50;6.72;;;2.90;;
53646;SDS011;39550;52.230;5.194;2023-03-14T04:17:16;8.80;;;3.22;;
53646;SDS011;39550;52.230;5.194;2023-03-14T04:19:41;5.95;;;2.97;;
53646;SDS011;39550;52.230;5.194;2023-03-14T04:22:07;8.73;;;3.42;;
53646;SDS011;39550;52.230;5.194;2023-03-14T04:24:33;13.75;;;3.60;;
53646;SDS011;39550;52.230;5.194;2023-03-14T04:26:58;7.95;;;3.50;;
53646;SDS011;39550;52.230;5.194;2023-03-14T04:29:23;6.68;;;3.42;;
53646;SDS011;39550;52.230;5.194;2023-03-14T04:31:49;7.32;;;3.33;;
53646;SDS011;39550;52.230;5.194;2023-03-14T04:34:14;7.65;;;3.22;;
53646;SDS011;39550;52.230;5.194;2023-03-14T04:36:39;7.25;;;3.80;;
53646;SDS011;39550;52.230;5.194;2023-03-14T04:39:05;10.63;;;3.30;;
53646;SDS011;39550;52.230;5.194;2023-03-14T04:41:30;7.20;;;2.88;;
53646;SDS011;39550;52.230;5.194;2023-03-14T04:43:55;11.10;;;3.63;;
53646;SDS011;39550;52.230;5.194;2023-03-14T04:46:22;8.88;;;3.58;;
53646;SDS011;39550;52.230;5.194;2023-03-14T04:48:47;7.93;;;3.28;;
53646;SDS011;39550;52.230;5.194;2023-03-14T04:51:13;9.48;;;4.10;;
53646;SDS011;39550;52.230;5.194;2023-03-14T04:53:38;6.88;;;3.30;;
53646;SDS011;39550;52.230;5.194;2023-03-14T04:56:03;8.93;;;3.67;;
53646;SDS011;39550;52.230;5.194;2023-03-14T04:58:29;6.05;;;3.10;;
53646;SDS011;39550;52.230;5.194;2023-03-14T05:00:54;9.30;;;4.00;;
53646;SDS011;39550;52.230;5.194;2023-03-14T05:03:20;6.80;;;3.42;;
53646;SDS011;39550;52.230;5.194;2023-03-14T05:05:45;7.63;;;2.92;;
53646;SDS011;39550;52.230;5.194;2023-03-14T05:08:11;7.18;;;3.22;;
53646;SDS011;39550;52.230;5.194;2023-03-14T05:10:36;10.43;;;3.92;;
53646;SDS011;39550;52.230;5.194;2023-03-14T05:13:02;5.22;;;3.03;;
53646;SDS011;39550;52.230;5.194;2023-03-14T05:15:28;9.25;;;3.50;;
53646;SDS011;39550;52.230;5.194;2023-03-14T05:17:53;7.13;;;3.30;;
53646;SDS011;39550;52.230;5.194;2023-03-14T05:20:19;6.50;;;3.38;;
53646;SDS011;39550;52.230;5.194;2023-03-14T05:22:46;6.15;;;3.10;;
53646;SDS011;39550;52.230;5.194;2023-03-14T05:25:11;8.98;;;2.75;;
53646;SDS011;39550;52.230;5.194;2023-03-14T05:27:37;8.93;;;3.83;;
53646;SDS011;39550;52.230;5.194;2023-03-14T05:30:05;7.38;;;3.30;;
53646;SDS011;39550;52.230;5.194;2023-03-14T05:32:31;7.83;;;2.90;;
53646;SDS011;39550;52.230;5.194;2023-03-14T05:34:56;7.43;;;3.30;;
53646;SDS011;39550;52.230;5.194;2023-03-14T05:37:24;4.95;;;2.80;;
53646;SDS011;39550;52.230;5.194;2023-03-14T05:39:50;7.32;;;3.03;;
53646;SDS011;39550;52.230;5.194;2023-03-14T05:42:16;8.57;;;2.90;;
53646;SDS011;39550;52.230;5.194;2023-03-14T05:44:41;5.53;;;2.90;;
53646;SDS011;39550;52.230;5.194;2023-03-14T05:47:06;7.55;;;3.00;;
53646;SDS011;39550;52.230;5.194;2023-03-14T05:49:32;8.07;;;2.83;;
53646;SDS011;39550;52.230;5.194;2023-03-14T05:51:57;6.55;;;2.92;;
53646;SDS011;39550;52.230;5.194;2023-03-14T05:54:23;7.68;;;3.28;;
53646;SDS011;39550;52.230;5.194;2023-03-14T05:56:48;6.75;;;3.00;;
53646;SDS011;39550;52.230;5.194;2023-03-14T05:59:13;7.03;;;3.13;;
53646;SDS011;39550;52.230;5.194;2023-03-14T06:01:39;6.65;;;3.22;;
53646;SDS011;39550;52.230;5.194;2023-03-14T06:04:05;7.30;;;3.10;;
53646;SDS011;39550;52.230;5.194;2023-03-14T06:06:30;9.68;;;2.90;;
53646;SDS011;39550;52.230;5.194;2023-03-14T06:08:56;5.90;;;3.25;;
53646;SDS011;39550;52.230;5.194;2023-03-14T06:11:21;6.85;;;2.90;;
53646;SDS011;39550;52.230;5.194;2023-03-14T06:13:46;5.68;;;3.03;;
53646;SDS011;39550;52.230;5.194;2023-03-14T06:16:11;10.30;;;3.40;;
53646;SDS011;39550;52.230;5.194;2023-03-14T06:18:38;6.05;;;3.17;;
53646;SDS011;39550;52.230;5.194;2023-03-14T06:21:03;5.90;;;2.92;;
53646;SDS011;39550;52.230;5.194;2023-03-14T06:41:37;6.07;;;2.78;;
53646;SDS011;39550;52.230;5.194;2023-03-14T06:44:03;9.52;;;3.33;;
53646;SDS011;39550;52.230;5.194;2023-03-14T06:46:28;6.68;;;2.72;;
53646;SDS011;39550;52.230;5.194;2023-03-14T06:48:53;7.05;;;3.00;;
53646;SDS011;39550;52.230;5.194;2023-03-14T06:51:19;5.18;;;2.95;;
53646;SDS011;39550;52.230;5.194;2023-03-14T06:53:44;7.30;;;2.90;;
53646;SDS011;39550;52.230;5.194;2023-03-14T06:56:09;6.43;;;3.08;;
53646;SDS011;39550;52.230;5.194;2023-03-14T06:58:35;6.43;;;2.70;;
53646;SDS011;39550;52.230;5.194;2023-03-14T07:01:00;6.07;;;2.95;;
53646;SDS011;39550;52.230;5.194;2023-03-14T07:03:26;5.38;;;2.80;;
53646;SDS011;39550;52.230;5.194;2023-03-14T07:05:52;6.22;;;2.65;;
53646;SDS011;39550;52.230;5.194;2023-03-14T07:08:18;5.47;;;2.80;;
53646;SDS011;39550;52.230;5.194;2023-03-14T07:10:43;6.10;;;2.88;;
53646;SDS011;39550;52.230;5.194;2023-03-14T07:13:08;5.53;;;3.00;;
53646;SDS011;39550;52.230;5.194;2023-03-14T07:15:34;7.90;;;2.80;;
53646;SDS011;39550;52.230;5.194;2023-03-14T07:17:59;6.35;;;3.05;;
53646;SDS011;39550;52.230;5.194;2023-03-14T07:20:24;4.72;;;2.40;;
53646;SDS011;39550;52.230;5.194;2023-03-14T07:22:50;6.20;;;2.90;;
53646;SDS011;39550;52.230;5.194;2023-03-14T07:25:16;4.75;;;2.67;;
53646;SDS011;39550;52.230;5.194;2023-03-14T07:27:45;6.05;;;2.60;;
53646;SDS011;39550;52.230;5.194;2023-03-14T07:32:37;4.95;;;2.70;;
53646;SDS011;39550;52.230;5.194;2023-03-14T07:35:02;6.18;;;2.60;;
53646;SDS011;39550;52.230;5.194;2023-03-14T07:37:28;5.22;;;2.70;;
53646;SDS011;39550;52.230;5.194;2023-03-14T07:39:53;5.72;;;2.60;;
53646;SDS011;39550;52.230;5.194;2023-03-14T07:42:18;5.88;;;2.65;;
53646;SDS011;39550;52.230;5.194;2023-03-14T07:44:44;8.00;;;3.50;;
53646;SDS011;39550;52.230;5.194;2023-03-14T07:47:09;5.15;;;2.50;;
53646;SDS011;39550;52.230;5.194;2023-03-14T07:49:35;7.20;;;2.60;;
53646;SDS011;39550;52.230;5.194;2023-03-14T07:52:00;6.95;;;2.55;;
53646;SDS011;39550;52.230;5.194;2023-03-14T07:54:25;5.75;;;2.92;;
53646;SDS011;39550;52.230;5.194;2023-03-14T07:56:51;4.57;;;2.85;;
53646;SDS011;39550;52.230;5.194;2023-03-14T07:59:17;5.43;;;2.10;;
53646;SDS011;39550;52.230;5.194;2023-03-14T08:01:43;4.72;;;2.63;;
53646;SDS011;39550;52.230;5.194;2023-03-14T08:04:08;6.03;;;2.28;;
53646;SDS011;39550;52.230;5.194;2023-03-14T08:06:34;4.45;;;2.28;;
53646;SDS011;39550;52.230;5.194;2023-03-14T08:09:00;6.80;;;2.58;;
53646;SDS011;39550;52.230;5.194;2023-03-14T08:11:26;6.88;;;2.80;;
53646;SDS011;39550;52.230;5.194;2023-03-14T08:13:51;6.28;;;2.42;;
53646;SDS011;39550;52.230;5.194;2023-03-14T08:16:17;9.07;;;2.40;;
53646;SDS011;39550;52.230;5.194;2023-03-14T08:18:43;6.55;;;2.42;;
53646;SDS011;39550;52.230;5.194;2023-03-14T08:21:09;7.05;;;2.75;;
53646;SDS011;39550;52.230;5.194;2023-03-14T08:23:34;8.65;;;2.60;;
53646;SDS011;39550;52.230;5.194;2023-03-14T08:25:59;5.45;;;2.25;;
53646;SDS011;39550;52.230;5.194;2023-03-14T08:28:25;8.05;;;2.85;;
53646;SDS011;39550;52.230;5.194;2023-03-14T08:30:55;5.68;;;2.42;;
53646;SDS011;39550;52.230;5.194;2023-03-14T08:33:21;5.30;;;2.25;;
53646;SDS011;39550;52.230;5.194;2023-03-14T08:35:47;4.53;;;2.20;;
53646;SDS011;39550;52.230;5.194;2023-03-14T08:38:12;4.45;;;2.00;;
53646;SDS011;39550;52.230;5.194;2023-03-14T08:40:37;7.18;;;2.80;;
53646;SDS011;39550;52.230;5.194;2023-03-14T08:43:03;7.45;;;2.70;;
53646;SDS011;39550;52.230;5.194;2023-03-14T08:45:28;5.85;;;2.00;;
53646;SDS011;39550;52.230;5.194;2023-03-14T08:47:53;5.72;;;2.28;;
53646;SDS011;39550;52.230;5.194;2023-03-14T08:50:19;5.47;;;2.00;;
53646;SDS011;39550;52.230;5.194;2023-03-14T08:52:44;3.80;;;1.80;;
53646;SDS011;39550;52.230;5.194;2023-03-14T08:55:09;5.93;;;2.20;;
53646;SDS011;39550;52.230;5.194;2023-03-14T08:57:35;6.68;;;2.20;;
53646;SDS011;39550;52.230;5.194;2023-03-14T09:00:01;4.55;;;2.28;;
53646;SDS011;39550;52.230;5.194;2023-03-14T09:02:30;6.63;;;2.65;;
53646;SDS011;39550;52.230;5.194;2023-03-14T09:04:55;4.15;;;2.15;;
53646;SDS011;39550;52.230;5.194;2023-03-14T09:07:20;7.68;;;2.33;;
53646;SDS011;39550;52.230;5.194;2023-03-14T09:09:46;6.22;;;2.40;;
53646;SDS011;39550;52.230;5.194;2023-03-14T09:12:11;6.75;;;2.28;;
53646;SDS011;39550;52.230;5.194;2023-03-14T09:14:37;6.25;;;2.20;;
53646;SDS011;39550;52.230;5.194;2023-03-14T09:17:03;8.40;;;2.40;;
53646;SDS011;39550;52.230;5.194;2023-03-14T09:19:29;5.43;;;2.50;;
53646;SDS011;39550;52.230;5.194;2023-03-14T09:21:54;7.97;;;2.80;;
53646;SDS011;39550;52.230;5.194;2023-03-14T09:24:20;7.10;;;3.08;;
53646;SDS011;39550;52.230;5.194;2023-03-14T09:26:45;8.45;;;2.50;;
53646;SDS011;39550;52.230;5.194;2023-03-14T09:29:10;12.98;;;3.00;;
53646;SDS011;39550;52.230;5.194;2023-03-14T09:31:35;7.10;;;2.67;;
53646;SDS011;39550;52.230;5.194;2023-03-14T09:34:01;7.15;;;3.25;;
53646;SDS011;39550;52.230;5.194;2023-03-14T09:36:26;7.53;;;2.80;;
53646;SDS011;39550;52.230;5.194;2023-03-14T09:38:52;7.15;;;3.00;;
53646;SDS011;39550;52.230;5.194;2023-03-14T09:41:18;9.02;;;3.20;;
53646;SDS011;39550;52.230;5.194;2023-03-14T09:43:49;17.40;;;3.40;;
53646;SDS011;39550;52.230;5.194;2023-03-14T09:46:27;13.23;;;3.42;;
53646;SDS011;39550;52.230;5.194;2023-03-14T09:48:54;9.25;;;2.92;;
53646;SDS011;39550;52.230;5.194;2023-03-14T09:51:19;8.15;;;3.22;;
53646;SDS011;39550;52.230;5.194;2023-03-14T09:53:47;9.20;;;3.20;;
53646;SDS011;39550;52.230;5.194;2023-03-14T09:58:58;10.20;;;3.53;;
53646;SDS011;39550;52.230;5.194;2023-03-14T10:01:26;11.18;;;3.30;;
53646;SDS011;39550;52.230;5.194;2023-03-14T10:03:57;8.60;;;3.63;;
53646;SDS011;39550;52.230;5.194;2023-03-14T10:06:27;9.85;;;3.50;;
53646;SDS011;39550;52.230;5.194;2023-03-14T10:08:54;10.07;;;3.35;;
53646;SDS011;39550;52.230;5.194;2023-03-14T10:11:21;11.00;;;3.30;;
53646;SDS011;39550;52.230;5.194;2023-03-14T10:13:48;8.98;;;4.03;;
53646;SDS011;39550;52.230;5.194;2023-03-14T10:16:30;8.35;;;3.40;;
53646;SDS011;39550;52.230;5.194;2023-03-14T10:19:01;13.25;;;3.72;;
53646;SDS011;39550;52.230;5.194;2023-03-14T10:21:29;7.45;;;3.40;;
53646;SDS011;39550;52.230;5.194;2023-03-14T10:27:03;12.68;;;3.90;;
53646;SDS011;39550;52.230;5.194;2023-03-14T10:29:32;9.70;;;3.15;;
53646;SDS011;39550;52.230;5.194;2023-03-14T10:32:00;10.27;;;3.58;;
53646;SDS011;39550;52.230;5.194;2023-03-14T10:34:30;8.52;;;3.45;;
53646;SDS011;39550;52.230;5.194;2023-03-14T10:36:59;10.70;;;3.67;;
53646;SDS011;39550;52.230;5.194;2023-03-14T10:39:36;10.18;;;3.88;;
53646;SDS011;39550;52.230;5.194;2023-03-14T10:44:38;11.55;;;4.10;;
53646;SDS011;39550;52.230;5.194;2023-03-14T10:47:04;9.68;;;3.65;;
53646;SDS011;39550;52.230;5.194;2023-03-14T10:49:36;12.18;;;3.50;;
53646;SDS011;39550;52.230;5.194;2023-03-14T10:52:47;14.10;;;4.10;;
53646;SDS011;39550;52.230;5.194;2023-03-14T10:54:54;13.15;;;3.90;;
53646;SDS011;39550;52.230;5.194;2023-03-14T10:57:20;11.48;;;4.13;;
53646;SDS011;39550;52.230;5.194;2023-03-14T10:59:46;13.57;;;4.85;;
53646;SDS011;39550;52.230;5.194;2023-03-14T11:02:33;14.43;;;3.85;;
53646;SDS011;39550;52.230;5.194;2023-03-14T11:05:03;13.25;;;4.25;;
53646;SDS011;39550;52.230;5.194;2023-03-14T11:07:49;13.52;;;4.20;;
53646;SDS011;39550;52.230;5.194;2023-03-14T11:10:24;13.32;;;3.85;;
53646;SDS011;39550;52.230;5.194;2023-03-14T11:15:47;11.65;;;4.03;;
53646;SDS011;39550;52.230;5.194;2023-03-14T11:21:29;10.30;;;3.67;;
53646;SDS011;39550;52.230;5.194;2023-03-14T11:27:00;13.95;;;4.20;;
53646;SDS011;39550;52.230;5.194;2023-03-14T11:30:00;11.00;;;4.10;;
53646;SDS011;39550;52.230;5.194;2023-03-14T11:35:15;19.42;;;4.75;;
53646;SDS011;39550;52.230;5.194;2023-03-14T11:37:52;16.17;;;4.38;;
53646;SDS011;39550;52.230;5.194;2023-03-14T11:40:26;12.02;;;4.30;;
53646;SDS011;39550;52.230;5.194;2023-03-14T11:43:06;8.00;;;3.67;;
53646;SDS011;39550;52.230;5.194;2023-03-14T11:45:40;12.23;;;4.72;;
53646;SDS011;39550;52.230;5.194;2023-03-14T11:48:12;10.82;;;3.88;;
53646;SDS011;39550;52.230;5.194;2023-03-14T11:50:38;11.02;;;3.45;;
53646;SDS011;39550;52.230;5.194;2023-03-14T11:53:16;12.13;;;3.75;;
53646;SDS011;39550;52.230;5.194;2023-03-14T11:55:46;10.57;;;3.13;;
53646;SDS011;39550;52.230;5.194;2023-03-14T11:58:14;11.13;;;3.38;;
53646;SDS011;39550;52.230;5.194;2023-03-14T12:00:41;10.57;;;3.70;;
53646;SDS011;39550;52.230;5.194;2023-03-14T12:03:21;12.35;;;3.85;;
53646;SDS011;39550;52.230;5.194;2023-03-14T12:08:38;10.98;;;3.88;;
53646;SDS011;39550;52.230;5.194;2023-03-14T12:11:19;9.32;;;3.35;;
53646;SDS011;39550;52.230;5.194;2023-03-14T12:13:51;9.93;;;3.75;;
53646;SDS011;39550;52.230;5.194;2023-03-14T12:18:52;12.40;;;3.85;;
53646;SDS011;39550;52.230;5.194;2023-03-14T12:21:18;11.23;;;3.25;;
53646;SDS011;39550;52.230;5.194;2023-03-14T12:26:25;11.90;;;3.72;;
53646;SDS011;39550;52.230;5.194;2023-03-14T12:42:17;9.57;;;3.75;;
53646;SDS011;39550;52.230;5.194;2023-03-14T12:47:53;8.20;;;3.17;;
53646;SDS011;39550;52.230;5.194;2023-03-14T12:50:41;8.20;;;3.05;;
53646;SDS011;39550;52.230;5.194;2023-03-14T13:01:54;9.32;;;3.05;;
53646;SDS011;39550;52.230;5.194;2023-03-14T13:04:34;9.05;;;3.20;;
53646;SDS011;39550;52.230;5.194;2023-03-14T13:12:28;11.30;;;3.50;;
53646;SDS011;39550;52.230;5.194;2023-03-14T13:15:00;11.90;;;3.40;;
53646;SDS011;39550;52.230;5.194;2023-03-14T13:17:32;8.32;;;3.03;;
53646;SDS011;39550;52.230;5.194;2023-03-14T13:20:00;10.98;;;3.38;;
53646;SDS011;39550;52.230;5.194;2023-03-14T13:22:31;8.95;;;3.38;;
53646;SDS011;39550;52.230;5.194;2023-03-14T13:25:03;8.52;;;3.10;;
53646;SDS011;39550;52.230;5.194;2023-03-14T13:27:35;8.63;;;3.17;;
53646;SDS011;39550;52.230;5.194;2023-03-14T13:32:42;8.52;;;3.20;;
53646;SDS011;39550;52.230;5.194;2023-03-14T13:35:16;6.70;;;2.80;;
53646;SDS011;39550;52.230;5.194;2023-03-14T13:37:46;7.65;;;3.03;;
53646;SDS011;39550;52.230;5.194;2023-03-14T13:43:13;7.53;;;2.72;;
53646;SDS011;39550;52.230;5.194;2023-03-14T13:48:25;8.10;;;2.88;;
53646;SDS011;39550;52.230;5.194;2023-03-14T13:50:53;9.90;;;3.13;;
53646;SDS011;39550;52.230;5.194;2023-03-14T13:53:32;8.90;;;2.80;;
53646;SDS011;39550;52.230;5.194;2023-03-14T13:56:10;6.82;;;3.00;;
53646;SDS011;39550;52.230;5.194;2023-03-14T13:58:36;9.30;;;2.95;;
53646;SDS011;39550;52.230;5.194;2023-03-14T14:01:45;9.07;;;3.58;;
53646;SDS011;39550;52.230;5.194;2023-03-14T14:03:55;10.43;;;2.90;;
53646;SDS011;39550;52.230;5.194;2023-03-14T14:06:30;6.80;;;2.60;;
53646;SDS011;39550;52.230;5.194;2023-03-14T14:08:58;9.73;;;3.42;;
53646;SDS011;39550;52.230;5.194;2023-03-14T14:14:28;8.32;;;3.30;;
53646;SDS011;39550;52.230;5.194;2023-03-14T14:16:57;7.32;;;2.88;;
53646;SDS011;39550;52.230;5.194;2023-03-14T14:19:24;7.40;;;3.30;;
53646;SDS011;39550;52.230;5.194;2023-03-14T14:21:52;7.78;;;3.28;;
53646;SDS011;39550;52.230;5.194;2023-03-14T14:24:18;11.73;;;3.45;;
53646;SDS011;39550;52.230;5.194;2023-03-14T14:29:28;8.48;;;3.22;;
53646;SDS011;39550;52.230;5.194;2023-03-14T14:32:14;8.88;;;3.33;;
53646;SDS011;39550;52.230;5.194;2023-03-14T14:34:47;6.90;;;3.20;;
53646;SDS011;39550;52.230;5.194;2023-03-14T14:39:56;7.28;;;2.60;;
53646;SDS011;39550;52.230;5.194;2023-03-14T14:42:25;7.72;;;2.83;;
53646;SDS011;39550;52.230;5.194;2023-03-14T14:44:52;7.55;;;2.80;;
53646;SDS011;39550;52.230;5.194;2023-03-14T14:47:19;6.80;;;2.90;;
53646;SDS011;39550;52.230;5.194;2023-03-14T14:49:48;5.93;;;2.67;;
53646;SDS011;39550;52.230;5.194;2023-03-14T14:52:15;7.53;;;3.20;;
53646;SDS011;39550;52.230;5.194;2023-03-14T14:54:47;10.80;;;3.28;;
53646;SDS011;39550;52.230;5.194;2023-03-14T14:57:19;6.43;;;2.60;;
53646;SDS011;39550;52.230;5.194;2023-03-14T14:59:50;6.65;;;2.97;;
53646;SDS011;39550;52.230;5.194;2023-03-14T15:04:53;6.90;;;3.10;;
53646;SDS011;39550;52.230;5.194;2023-03-14T15:07:18;6.22;;;2.92;;
53646;SDS011;39550;52.230;5.194;2023-03-14T15:09:44;7.18;;;3.03;;
53646;SDS011;39550;52.230;5.194;2023-03-14T15:12:09;9.07;;;2.85;;
53646;SDS011;39550;52.230;5.194;2023-03-14T15:14:35;8.70;;;3.05;;
53646;SDS011;39550;52.230;5.194;2023-03-14T15:17:00;8.75;;;3.08;;
53646;SDS011;39550;52.230;5.194;2023-03-14T15:19:26;7.80;;;2.83;;
53646;SDS011;39550;52.230;5.194;2023-03-14T15:21:53;7.55;;;3.03;;
53646;SDS011;39550;52.230;5.194;2023-03-14T15:24:19;7.20;;;2.63;;
53646;SDS011;39550;52.230;5.194;2023-03-14T15:26:44;6.32;;;2.40;;
53646;SDS011;39550;52.230;5.194;2023-03-14T15:29:10;10.77;;;3.03;;
53646;SDS011;39550;52.230;5.194;2023-03-14T15:31:37;6.75;;;2.53;;
53646;SDS011;39550;52.230;5.194;2023-03-14T15:34:04;9.65;;;3.53;;
53646;SDS011;39550;52.230;5.194;2023-03-14T15:36:30;12.48;;;3.10;;
53646;SDS011;39550;52.230;5.194;2023-03-14T15:38:57;7.40;;;2.85;;
53646;SDS011;39550;52.230;5.194;2023-03-14T15:41:24;6.07;;;2.80;;
53646;SDS011;39550;52.230;5.194;2023-03-14T15:43:50;5.55;;;2.63;;
53646;SDS011;39550;52.230;5.194;2023-03-14T15:46:16;5.85;;;2.97;;
53646;SDS011;39550;52.230;5.194;2023-03-14T15:48:44;9.00;;;2.92;;
53646;SDS011;39550;52.230;5.194;2023-03-14T15:51:10;6.85;;;2.70;;
53646;SDS011;39550;52.230;5.194;2023-03-14T15:53:36;5.32;;;2.60;;
53646;SDS011;39550;52.230;5.194;2023-03-14T15:56:02;6.75;;;2.92;;
53646;SDS011;39550;52.230;5.194;2023-03-14T15:58:31;6.82;;;2.90;;
53646;SDS011;39550;52.230;5.194;2023-03-14T16:00:58;8.27;;;2.72;;
53646;SDS011;39550;52.230;5.194;2023-03-14T16:03:24;11.45;;;3.42;;
53646;SDS011;39550;52.230;5.194;2023-03-14T16:05:49;8.68;;;3.92;;
53646;SDS011;39550;52.230;5.194;2023-03-14T16:08:15;9.73;;;3.13;;
53646;SDS011;39550;52.230;5.194;2023-03-14T16:10:41;10.18;;;3.70;;
53646;SDS011;39550;52.230;5.194;2023-03-14T16:13:07;9.35;;;3.17;;
53646;SDS011;39550;52.230;5.194;2023-03-14T16:15:32;6.95;;;2.90;;
53646;SDS011;39550;52.230;5.194;2023-03-14T16:17:57;6.57;;;3.00;;
53646;SDS011;39550;52.230;5.194;2023-03-14T16:20:23;9.20;;;3.47;;
53646;SDS011;39550;52.230;5.194;2023-03-14T16:22:48;9.18;;;3.47;;
53646;SDS011;39550;52.230;5.194;2023-03-14T16:25:14;6.05;;;2.80;;
53646;SDS011;39550;52.230;5.194;2023-03-14T16:27:40;12.75;;;3.67;;
53646;SDS011;39550;52.230;5.194;2023-03-14T16:30:06;10.32;;;3.30;;
53646;SDS011;39550;52.230;5.194;2023-03-14T16:32:34;8.45;;;2.72;;